sensor_id;sensor_type;location;lat;lon;timestamp;pressure;altitude;pressure_sealevel;temperature;humidity
37298;BME280;30517;51.932;4.278;2023-08-01T00:00:34;99903.84;;;22.78;53.00
37298;BME280;30517;51.932;4.278;2023-08-01T00:03:15;99910.00;;;22.80;52.92
37298;BME280;30517;51.932;4.278;2023-08-01T00:05:56;99914.31;;;22.82;52.94
37298;BME280;30517;51.932;4.278;2023-08-01T00:08:37;99898.56;;;22.76;52.78
37298;BME280;30517;51.932;4.278;2023-08-01T00:11:18;99826.22;;;22.33;52.84
37298;BME280;30517;51.932;4.278;2023-08-01T00:13:58;99904.19;;;22.86;52.83
37298;BME280;30517;51.932;4.278;2023-08-01T00:16:39;99904.41;;;22.83;52.95
37298;BME280;30517;51.932;4.278;2023-08-01T00:19:20;99894.09;;;22.89;52.58
37298;BME280;30517;51.932;4.278;2023-08-01T00:22:01;99875.91;;;22.80;52.67
37298;BME280;30517;51.932;4.278;2023-08-01T00:24:42;99886.69;;;22.93;52.29
37298;BME280;30517;51.932;4.278;2023-08-01T00:27:22;99883.34;;;22.89;52.19
37298;BME280;30517;51.932;4.278;2023-08-01T00:30:04;99859.22;;;22.75;52.28
37298;BME280;30517;51.932;4.278;2023-08-01T00:32:45;99851.16;;;22.75;52.14
37298;BME280;30517;51.932;4.278;2023-08-01T00:35:26;99870.31;;;22.83;52.50
37298;BME280;30517;51.932;4.278;2023-08-01T00:38:07;99870.63;;;22.79;52.64
37298;BME280;30517;51.932;4.278;2023-08-01T00:40:48;99875.69;;;22.83;52.38
37298;BME280;30517;51.932;4.278;2023-08-01T00:46:24;99711.03;;;21.88;52.41
37298;BME280;30517;51.932;4.278;2023-08-01T00:49:05;99848.69;;;22.72;52.38
37298;BME280;30517;51.932;4.278;2023-08-01T00:51:48;99840.00;;;22.68;52.47
37298;BME280;30517;51.932;4.278;2023-08-01T00:54:29;99779.81;;;22.31;52.15
37298;BME280;30517;51.932;4.278;2023-08-01T00:57:15;99762.38;;;22.24;52.33
37298;BME280;30517;51.932;4.278;2023-08-01T00:59:56;99850.81;;;22.67;52.42
37298;BME280;30517;51.932;4.278;2023-08-01T01:02:37;99720.72;;;21.91;52.09
37298;BME280;30517;51.932;4.278;2023-08-01T01:05:19;99611.00;;;21.32;52.17
37298;BME280;30517;51.932;4.278;2023-08-01T01:08:02;99833.03;;;22.51;52.40
37298;BME280;30517;51.932;4.278;2023-08-01T01:10:44;99799.59;;;22.43;51.84
37298;BME280;30517;51.932;4.278;2023-08-01T01:13:25;99749.97;;;22.08;52.31
37298;BME280;30517;51.932;4.278;2023-08-01T01:16:06;99862.91;;;22.74;52.35
37298;BME280;30517;51.932;4.278;2023-08-01T01:18:47;99837.59;;;22.64;52.00
37298;BME280;30517;51.932;4.278;2023-08-01T01:21:27;99827.69;;;22.51;52.17
37298;BME280;30517;51.932;4.278;2023-08-01T01:24:11;99758.69;;;22.12;52.18
37298;BME280;30517;51.932;4.278;2023-08-01T01:26:54;99734.91;;;21.93;52.36
37298;BME280;30517;51.932;4.278;2023-08-01T01:29:36;99860.22;;;22.74;52.03
37298;BME280;30517;51.932;4.278;2023-08-01T01:32:18;99850.41;;;22.73;52.01
37298;BME280;30517;51.932;4.278;2023-08-01T01:34:58;99780.78;;;22.30;52.10
37298;BME280;30517;51.932;4.278;2023-08-01T01:37:39;99811.47;;;22.53;52.01
37298;BME280;30517;51.932;4.278;2023-08-01T01:40:23;99790.91;;;22.39;52.00
37298;BME280;30517;51.932;4.278;2023-08-01T01:43:04;99829.84;;;22.59;52.08
37298;BME280;30517;51.932;4.278;2023-08-01T01:45:44;99845.66;;;22.64;51.97
37298;BME280;30517;51.932;4.278;2023-08-01T01:48:25;99778.00;;;22.31;52.11
37298;BME280;30517;51.932;4.278;2023-08-01T01:51:06;99683.81;;;21.68;51.94
37298;BME280;30517;51.932;4.278;2023-08-01T01:53:47;99861.06;;;22.74;52.06
37298;BME280;30517;51.932;4.278;2023-08-01T01:56:28;99785.63;;;22.38;51.97
37298;BME280;30517;51.932;4.278;2023-08-01T01:59:12;99668.03;;;21.63;51.73
37298;BME280;30517;51.932;4.278;2023-08-01T02:01:53;99862.69;;;22.77;51.93
37298;BME280;30517;51.932;4.278;2023-08-01T02:04:34;99840.84;;;22.69;51.57
37298;BME280;30517;51.932;4.278;2023-08-01T02:07:14;99847.41;;;22.78;51.73
37298;BME280;30517;51.932;4.278;2023-08-01T02:09:55;99827.72;;;22.64;52.03
37298;BME280;30517;51.932;4.278;2023-08-01T02:12:36;99797.78;;;22.43;51.83
37298;BME280;30517;51.932;4.278;2023-08-01T02:15:19;99742.88;;;22.07;51.92
37298;BME280;30517;51.932;4.278;2023-08-01T02:18:00;99837.16;;;22.70;51.97
37298;BME280;30517;51.932;4.278;2023-08-01T02:20:41;99840.00;;;22.68;51.60
37298;BME280;30517;51.932;4.278;2023-08-01T02:23:23;99837.50;;;22.78;51.63
37298;BME280;30517;51.932;4.278;2023-08-01T02:26:03;99657.94;;;21.67;51.63
37298;BME280;30517;51.932;4.278;2023-08-01T02:28:44;99837.09;;;22.71;51.96
37298;BME280;30517;51.932;4.278;2023-08-01T02:31:25;99841.56;;;22.71;51.73
37298;BME280;30517;51.932;4.278;2023-08-01T02:34:06;99775.00;;;22.36;51.69
37298;BME280;30517;51.932;4.278;2023-08-01T02:36:47;99722.75;;;22.00;51.89
37298;BME280;30517;51.932;4.278;2023-08-01T02:39:28;99835.69;;;22.66;51.71
37298;BME280;30517;51.932;4.278;2023-08-01T02:42:09;99824.13;;;22.51;52.01
37298;BME280;30517;51.932;4.278;2023-08-01T02:44:49;99843.88;;;22.77;51.46
37298;BME280;30517;51.932;4.278;2023-08-01T02:47:30;99786.19;;;22.43;51.68
37298;BME280;30517;51.932;4.278;2023-08-01T02:50:11;99809.63;;;22.53;51.48
37298;BME280;30517;51.932;4.278;2023-08-01T02:52:54;99801.66;;;22.39;51.51
37298;BME280;30517;51.932;4.278;2023-08-01T02:55:35;99838.38;;;22.66;51.50
37298;BME280;30517;51.932;4.278;2023-08-01T02:58:16;99815.78;;;22.56;51.76
37298;BME280;30517;51.932;4.278;2023-08-01T03:00:57;99811.97;;;22.45;51.59
37298;BME280;30517;51.932;4.278;2023-08-01T03:03:38;99791.97;;;22.37;51.42
37298;BME280;30517;51.932;4.278;2023-08-01T03:06:19;99842.75;;;22.67;51.58
37298;BME280;30517;51.932;4.278;2023-08-01T03:09:00;99787.03;;;22.30;51.93
37298;BME280;30517;51.932;4.278;2023-08-01T03:11:41;99854.38;;;22.67;51.67
37298;BME280;30517;51.932;4.278;2023-08-01T03:14:22;99850.06;;;22.65;51.50
37298;BME280;30517;51.932;4.278;2023-08-01T03:17:03;99846.22;;;22.69;51.63
37298;BME280;30517;51.932;4.278;2023-08-01T03:19:44;99781.41;;;22.21;51.54
37298;BME280;30517;51.932;4.278;2023-08-01T03:22:24;99781.50;;;22.19;51.55
37298;BME280;30517;51.932;4.278;2023-08-01T03:25:07;99848.88;;;22.56;51.65
37298;BME280;30517;51.932;4.278;2023-08-01T03:27:48;99841.44;;;22.47;51.73
37298;BME280;30517;51.932;4.278;2023-08-01T03:30:28;99863.94;;;22.59;51.75
37298;BME280;30517;51.932;4.278;2023-08-01T03:33:09;99831.72;;;22.31;52.01
37298;BME280;30517;51.932;4.278;2023-08-01T03:35:53;99799.22;;;22.22;51.48
37298;BME280;30517;51.932;4.278;2023-08-01T03:38:34;99819.91;;;22.34;51.80
37298;BME280;30517;51.932;4.278;2023-08-01T03:41:15;99864.47;;;22.64;51.55
37298;BME280;30517;51.932;4.278;2023-08-01T03:43:55;99871.78;;;22.62;51.69
37298;BME280;30517;51.932;4.278;2023-08-01T03:46:36;99841.22;;;22.50;51.20
37298;BME280;30517;51.932;4.278;2023-08-01T03:49:20;99862.94;;;22.60;51.47
37298;BME280;30517;51.932;4.278;2023-08-01T03:52:01;99821.63;;;22.35;51.22
37298;BME280;30517;51.932;4.278;2023-08-01T03:54:42;99844.44;;;22.42;51.37
37298;BME280;30517;51.932;4.278;2023-08-01T03:57:23;99838.09;;;22.43;51.31
37298;BME280;30517;51.932;4.278;2023-08-01T04:00:07;99870.81;;;22.63;51.36
37298;BME280;30517;51.932;4.278;2023-08-01T04:02:53;99867.59;;;22.58;51.86
37298;BME280;30517;51.932;4.278;2023-08-01T04:05:34;99799.03;;;22.25;51.25
37298;BME280;30517;51.932;4.278;2023-08-01T04:08:15;99864.22;;;22.54;51.17
37298;BME280;30517;51.932;4.278;2023-08-01T04:10:56;99828.19;;;22.31;51.56
37298;BME280;30517;51.932;4.278;2023-08-01T04:13:37;99812.66;;;22.22;51.63
37298;BME280;30517;51.932;4.278;2023-08-01T04:16:19;99832.38;;;22.35;51.39
37298;BME280;30517;51.932;4.278;2023-08-01T04:18:59;99869.31;;;22.59;51.29
37298;BME280;30517;51.932;4.278;2023-08-01T04:21:40;99832.03;;;22.27;51.58
37298;BME280;30517;51.932;4.278;2023-08-01T04:24:21;99793.47;;;22.14;51.19
37298;BME280;30517;51.932;4.278;2023-08-01T04:27:05;99840.00;;;22.41;50.94
37298;BME280;30517;51.932;4.278;2023-08-01T04:29:47;99829.59;;;22.37;50.91
37298;BME280;30517;51.932;4.278;2023-08-01T04:32:28;99840.97;;;22.40;51.22
37298;BME280;30517;51.932;4.278;2023-08-01T04:35:12;99806.22;;;22.24;51.17
37298;BME280;30517;51.932;4.278;2023-08-01T04:37:53;99860.81;;;22.65;51.03
37298;BME280;30517;51.932;4.278;2023-08-01T04:40:34;99784.09;;;22.21;50.81
37298;BME280;30517;51.932;4.278;2023-08-01T04:43:15;99865.28;;;22.51;51.18
37298;BME280;30517;51.932;4.278;2023-08-01T04:45:57;99827.63;;;22.26;50.88
37298;BME280;30517;51.932;4.278;2023-08-01T04:48:38;99854.53;;;22.39;51.46
37298;BME280;30517;51.932;4.278;2023-08-01T04:51:19;99866.34;;;22.36;51.55
37298;BME280;30517;51.932;4.278;2023-08-01T04:54:00;99829.47;;;22.25;51.63
37298;BME280;30517;51.932;4.278;2023-08-01T04:56:41;99818.50;;;22.14;51.00
37298;BME280;30517;51.932;4.278;2023-08-01T04:59:21;99781.59;;;21.91;51.26
37298;BME280;30517;51.932;4.278;2023-08-01T05:02:02;99869.56;;;22.41;51.24
37298;BME280;30517;51.932;4.278;2023-08-01T05:04:43;99872.91;;;22.18;51.47
37298;BME280;30517;51.932;4.278;2023-08-01T05:07:24;99839.97;;;21.87;51.79
37298;BME280;30517;51.932;4.278;2023-08-01T05:10:05;99799.22;;;21.95;50.79
37298;BME280;30517;51.932;4.278;2023-08-01T05:12:46;99860.34;;;22.45;50.52
37298;BME280;30517;51.932;4.278;2023-08-01T05:15:27;99867.13;;;22.51;50.46
37298;BME280;30517;51.932;4.278;2023-08-01T05:18:08;99872.72;;;22.48;50.79
37298;BME280;30517;51.932;4.278;2023-08-01T05:20:49;99864.66;;;22.48;50.62
37298;BME280;30517;51.932;4.278;2023-08-01T05:23:30;99868.31;;;22.47;50.48
37298;BME280;30517;51.932;4.278;2023-08-01T05:26:13;99867.25;;;22.49;50.38
37298;BME280;30517;51.932;4.278;2023-08-01T05:28:54;99777.84;;;21.93;50.47
37298;BME280;30517;51.932;4.278;2023-08-01T05:31:35;99779.97;;;21.88;50.67
37298;BME280;30517;51.932;4.278;2023-08-01T05:34:16;99885.50;;;22.44;50.88
37298;BME280;30517;51.932;4.278;2023-08-01T05:36:57;99890.97;;;22.43;50.88
37298;BME280;30517;51.932;4.278;2023-08-01T05:39:38;99841.47;;;22.20;50.73
37298;BME280;30517;51.932;4.278;2023-08-01T05:42:19;99881.19;;;22.42;50.95
37298;BME280;30517;51.932;4.278;2023-08-01T05:45:00;99860.06;;;22.23;50.95
37298;BME280;30517;51.932;4.278;2023-08-01T05:47:41;99843.56;;;22.15;50.80
37298;BME280;30517;51.932;4.278;2023-08-01T05:50:22;99830.13;;;22.15;50.85
37298;BME280;30517;51.932;4.278;2023-08-01T05:53:03;99895.56;;;22.41;50.64
37298;BME280;30517;51.932;4.278;2023-08-01T05:55:44;99905.38;;;22.42;50.89
37298;BME280;30517;51.932;4.278;2023-08-01T05:58:25;99879.22;;;22.31;50.81
37298;BME280;30517;51.932;4.278;2023-08-01T06:01:06;99830.38;;;21.97;51.06
37298;BME280;30517;51.932;4.278;2023-08-01T06:03:49;99893.22;;;22.36;51.26
37298;BME280;30517;51.932;4.278;2023-08-01T06:06:30;99909.34;;;22.36;51.04
37298;BME280;30517;51.932;4.278;2023-08-01T06:09:11;99844.91;;;22.07;51.06
37298;BME280;30517;51.932;4.278;2023-08-01T06:11:52;99835.84;;;21.96;51.09
37298;BME280;30517;51.932;4.278;2023-08-01T06:14:33;99904.09;;;22.47;50.71
37298;BME280;30517;51.932;4.278;2023-08-01T06:17:13;99683.38;;;21.05;50.68
37298;BME280;30517;51.932;4.278;2023-08-01T06:19:55;99921.50;;;22.42;51.03
37298;BME280;30517;51.932;4.278;2023-08-01T06:22:36;99850.13;;;21.96;51.07
37298;BME280;30517;51.932;4.278;2023-08-01T06:25:17;99919.88;;;22.39;51.20
37298;BME280;30517;51.932;4.278;2023-08-01T06:27:58;99728.28;;;21.16;50.82
37298;BME280;30517;51.932;4.278;2023-08-01T06:30:39;99840.91;;;22.00;50.75
37298;BME280;30517;51.932;4.278;2023-08-01T06:33:23;99722.41;;;21.38;51.03
37298;BME280;30517;51.932;4.278;2023-08-01T06:36:05;99535.22;;;20.33;50.50
37298;BME280;30517;51.932;4.278;2023-08-01T06:38:46;99618.19;;;20.63;50.64
37298;BME280;30517;51.932;4.278;2023-08-01T06:41:27;99914.59;;;22.38;50.88
37298;BME280;30517;51.932;4.278;2023-08-01T06:44:08;99901.00;;;22.26;51.00
37298;BME280;30517;51.932;4.278;2023-08-01T06:46:49;99906.84;;;21.77;51.58
37298;BME280;30517;51.932;4.278;2023-08-01T06:49:31;99649.81;;;19.83;53.96
37298;BME280;30517;51.932;4.278;2023-08-01T06:52:12;99931.81;;;21.35;54.60
37298;BME280;30517;51.932;4.278;2023-08-01T06:54:56;99935.22;;;21.08;55.44
37298;BME280;30517;51.932;4.278;2023-08-01T06:57:37;99830.97;;;20.13;55.65
37298;BME280;30517;51.932;4.278;2023-08-01T07:00:18;99905.13;;;20.59;55.88
37298;BME280;30517;51.932;4.278;2023-08-01T07:03:00;99832.53;;;20.17;55.74
37298;BME280;30517;51.932;4.278;2023-08-01T07:05:42;99899.75;;;20.43;56.46
37298;BME280;30517;51.932;4.278;2023-08-01T07:08:23;99765.84;;;19.66;56.38
37298;BME280;30517;51.932;4.278;2023-08-01T07:11:04;99973.72;;;20.77;56.16
37298;BME280;30517;51.932;4.278;2023-08-01T07:13:45;99962.84;;;20.64;56.24
37298;BME280;30517;51.932;4.278;2023-08-01T07:16:26;99742.94;;;19.29;55.95
37298;BME280;30517;51.932;4.278;2023-08-01T07:19:07;99929.88;;;20.46;56.33
37298;BME280;30517;51.932;4.278;2023-08-01T07:21:48;99934.75;;;20.40;56.65
37298;BME280;30517;51.932;4.278;2023-08-01T07:24:29;99889.06;;;20.11;56.63
37298;BME280;30517;51.932;4.278;2023-08-01T07:27:15;99840.16;;;19.77;56.50
37298;BME280;30517;51.932;4.278;2023-08-01T07:29:56;99684.03;;;18.83;56.28
37298;BME280;30517;51.932;4.278;2023-08-01T07:32:37;99795.28;;;19.33;56.49
37298;BME280;30517;51.932;4.278;2023-08-01T07:35:18;99655.00;;;18.60;56.24
37298;BME280;30517;51.932;4.278;2023-08-01T07:37:59;99979.25;;;20.42;56.25
37298;BME280;30517;51.932;4.278;2023-08-01T07:40:40;99871.53;;;19.89;56.09
37298;BME280;30517;51.932;4.278;2023-08-01T07:43:21;99907.03;;;20.09;56.12
37298;BME280;30517;51.932;4.278;2023-08-01T07:46:06;99913.44;;;20.06;56.40
37298;BME280;30517;51.932;4.278;2023-08-01T07:48:48;99982.22;;;20.53;55.99
37298;BME280;30517;51.932;4.278;2023-08-01T07:51:31;99974.16;;;20.53;56.23
37298;BME280;30517;51.932;4.278;2023-08-01T07:54:13;99937.19;;;20.13;56.28
37298;BME280;30517;51.932;4.278;2023-08-01T07:56:54;99949.25;;;20.36;55.73
37298;BME280;30517;51.932;4.278;2023-08-01T07:59:35;99919.91;;;20.18;56.16
37298;BME280;30517;51.932;4.278;2023-08-01T08:02:16;99992.03;;;20.53;56.16
37298;BME280;30517;51.932;4.278;2023-08-01T08:04:57;99969.56;;;20.40;55.98
37298;BME280;30517;51.932;4.278;2023-08-01T08:07:39;99989.78;;;20.45;55.97
37298;BME280;30517;51.932;4.278;2023-08-01T08:10:20;99952.81;;;20.20;55.74
37298;BME280;30517;51.932;4.278;2023-08-01T08:13:01;99974.41;;;20.33;55.54
37298;BME280;30517;51.932;4.278;2023-08-01T08:15:42;99893.47;;;19.80;55.86
37298;BME280;30517;51.932;4.278;2023-08-01T08:18:23;99974.25;;;20.36;56.01
37298;BME280;30517;51.932;4.278;2023-08-01T08:21:04;99905.31;;;19.92;55.84
37298;BME280;30517;51.932;4.278;2023-08-01T08:23:45;100001.81;;;20.54;55.79
37298;BME280;30517;51.932;4.278;2023-08-01T08:26:27;100013.72;;;20.48;55.96
37298;BME280;30517;51.932;4.278;2023-08-01T08:29:08;99823.25;;;19.43;55.58
37298;BME280;30517;51.932;4.278;2023-08-01T08:31:50;100018.56;;;20.58;55.72
37298;BME280;30517;51.932;4.278;2023-08-01T08:34:31;99943.22;;;20.16;55.58
37298;BME280;30517;51.932;4.278;2023-08-01T08:37:12;99992.38;;;20.31;55.71
37298;BME280;30517;51.932;4.278;2023-08-01T08:39:52;99922.50;;;20.04;55.73
37298;BME280;30517;51.932;4.278;2023-08-01T08:42:34;99969.41;;;20.27;55.75
37298;BME280;30517;51.932;4.278;2023-08-01T08:45:18;99987.63;;;20.36;55.63
37298;BME280;30517;51.932;4.278;2023-08-01T08:48:02;100020.53;;;19.56;58.12
37298;BME280;30517;51.932;4.278;2023-08-01T08:50:49;99980.66;;;19.84;56.38
37298;BME280;30517;51.932;4.278;2023-08-01T08:53:31;99998.59;;;20.16;55.87
37298;BME280;30517;51.932;4.278;2023-08-01T08:56:13;99991.06;;;20.22;55.65
37298;BME280;30517;51.932;4.278;2023-08-01T08:58:56;100005.50;;;20.36;55.40
37298;BME280;30517;51.932;4.278;2023-08-01T09:01:38;99980.03;;;20.28;55.52
37298;BME280;30517;51.932;4.278;2023-08-01T09:04:19;100035.72;;;20.55;55.42
37298;BME280;30517;51.932;4.278;2023-08-01T09:07:02;100025.94;;;20.54;55.35
37298;BME280;30517;51.932;4.278;2023-08-01T09:09:43;100028.59;;;20.54;55.56
37298;BME280;30517;51.932;4.278;2023-08-01T09:12:24;100029.41;;;20.56;55.53
37298;BME280;30517;51.932;4.278;2023-08-01T09:15:06;100024.03;;;20.56;55.50
37298;BME280;30517;51.932;4.278;2023-08-01T09:17:51;100021.44;;;20.54;55.67
37298;BME280;30517;51.932;4.278;2023-08-01T09:20:49;100005.50;;;20.36;55.38
37298;BME280;30517;51.932;4.278;2023-08-01T09:23:30;99995.75;;;20.34;55.63
37298;BME280;30517;51.932;4.278;2023-08-01T09:26:15;100033.03;;;20.55;55.60
37298;BME280;30517;51.932;4.278;2023-08-01T09:28:56;100031.97;;;20.58;55.53
37298;BME280;30517;51.932;4.278;2023-08-01T09:31:40;100020.91;;;20.48;55.58
37298;BME280;30517;51.932;4.278;2023-08-01T09:34:23;100030.19;;;20.58;55.75
37298;BME280;30517;51.932;4.278;2023-08-01T09:37:04;100036.28;;;20.60;55.18
37298;BME280;30517;51.932;4.278;2023-08-01T09:39:53;100038.41;;;20.55;55.92
37298;BME280;30517;51.932;4.278;2023-08-01T09:42:42;100034.50;;;20.61;55.85
37298;BME280;30517;51.932;4.278;2023-08-01T09:45:23;100014.75;;;20.46;55.67
37298;BME280;30517;51.932;4.278;2023-08-01T09:48:04;100042.94;;;20.53;55.73
37298;BME280;30517;51.932;4.278;2023-08-01T09:50:45;100064.28;;;20.70;55.90
37298;BME280;30517;51.932;4.278;2023-08-01T09:53:26;100078.56;;;20.71;55.53
37298;BME280;30517;51.932;4.278;2023-08-01T09:56:08;100067.94;;;20.69;55.91
37298;BME280;30517;51.932;4.278;2023-08-01T09:58:53;100065.09;;;20.72;55.85
37298;BME280;30517;51.932;4.278;2023-08-01T10:01:35;100059.66;;;20.74;55.71
37298;BME280;30517;51.932;4.278;2023-08-01T10:04:19;100045.28;;;20.59;55.91
37298;BME280;30517;51.932;4.278;2023-08-01T10:07:07;100031.28;;;20.54;55.81
37298;BME280;30517;51.932;4.278;2023-08-01T10:09:49;100065.00;;;20.74;55.82
37298;BME280;30517;51.932;4.278;2023-08-01T10:12:31;100072.75;;;20.78;55.74
37298;BME280;30517;51.932;4.278;2023-08-01T10:15:12;100059.28;;;20.80;55.73
37298;BME280;30517;51.932;4.278;2023-08-01T10:17:53;100071.72;;;20.81;55.74
37298;BME280;30517;51.932;4.278;2023-08-01T10:20:35;100065.16;;;20.71;55.68
37298;BME280;30517;51.932;4.278;2023-08-01T10:23:16;100070.88;;;20.81;55.85
37298;BME280;30517;51.932;4.278;2023-08-01T10:25:59;100006.72;;;20.46;55.68
37298;BME280;30517;51.932;4.278;2023-08-01T10:28:41;100034.81;;;20.70;55.64
37298;BME280;30517;51.932;4.278;2023-08-01T10:31:29;100057.53;;;20.79;55.68
37298;BME280;30517;51.932;4.278;2023-08-01T10:34:13;100054.00;;;20.78;55.80
37298;BME280;30517;51.932;4.278;2023-08-01T10:36:55;99971.63;;;20.19;55.69
37298;BME280;30517;51.932;4.278;2023-08-01T10:42:43;100072.06;;;20.91;55.67
37298;BME280;30517;51.932;4.278;2023-08-01T10:45:25;100051.69;;;20.72;55.78
37298;BME280;30517;51.932;4.278;2023-08-01T10:48:11;100098.44;;;20.98;55.87
37298;BME280;30517;51.932;4.278;2023-08-01T10:50:56;100092.91;;;21.02;55.61
37298;BME280;30517;51.932;4.278;2023-08-01T10:53:38;100036.28;;;20.60;55.72
37298;BME280;30517;51.932;4.278;2023-08-01T10:56:19;100069.75;;;20.85;55.72
37298;BME280;30517;51.932;4.278;2023-08-01T10:59:05;100104.31;;;21.05;55.59
37298;BME280;30517;51.932;4.278;2023-08-01T11:01:51;100111.75;;;21.00;55.72
37298;BME280;30517;51.932;4.278;2023-08-01T11:04:32;100043.81;;;20.69;55.99
37298;BME280;30517;51.932;4.278;2023-08-01T11:07:13;100111.50;;;21.05;55.49
37298;BME280;30517;51.932;4.278;2023-08-01T11:10:04;100110.22;;;21.12;55.67
37298;BME280;30517;51.932;4.278;2023-08-01T11:12:45;100084.34;;;20.95;55.70
37298;BME280;30517;51.932;4.278;2023-08-01T11:15:26;100029.16;;;20.61;55.67
37298;BME280;30517;51.932;4.278;2023-08-01T11:18:09;100036.91;;;20.65;55.82
37298;BME280;30517;51.932;4.278;2023-08-01T11:20:50;100110.09;;;21.13;55.59
37298;BME280;30517;51.932;4.278;2023-08-01T11:23:30;100113.56;;;21.15;55.42
37298;BME280;30517;51.932;4.278;2023-08-01T11:26:11;100128.78;;;21.15;55.61
37298;BME280;30517;51.932;4.278;2023-08-01T11:28:52;100130.84;;;21.26;55.38
37298;BME280;30517;51.932;4.278;2023-08-01T11:31:33;100112.41;;;21.19;55.59
37298;BME280;30517;51.932;4.278;2023-08-01T11:34:14;100136.22;;;21.26;55.52
37298;BME280;30517;51.932;4.278;2023-08-01T11:36:55;100033.53;;;20.62;55.69
37298;BME280;30517;51.932;4.278;2023-08-01T11:39:36;100118.81;;;21.17;55.56
37298;BME280;30517;51.932;4.278;2023-08-01T11:42:17;100067.75;;;20.88;55.53
37298;BME280;30517;51.932;4.278;2023-08-01T11:45:10;100116.06;;;21.18;55.64
37298;BME280;30517;51.932;4.278;2023-08-01T11:47:51;100143.66;;;21.36;55.54
37298;BME280;30517;51.932;4.278;2023-08-01T11:50:32;99947.13;;;20.26;55.46
37298;BME280;30517;51.932;4.278;2023-08-01T11:53:18;100071.13;;;20.92;55.62
37298;BME280;30517;51.932;4.278;2023-08-01T11:55:59;100135.06;;;21.30;55.53
37298;BME280;30517;51.932;4.278;2023-08-01T11:58:43;100153.19;;;21.42;55.48
37298;BME280;30517;51.932;4.278;2023-08-01T12:01:24;99890.09;;;19.93;55.43
37298;BME280;30517;51.932;4.278;2023-08-01T12:04:05;100095.22;;;21.08;55.61
37298;BME280;30517;51.932;4.278;2023-08-01T12:06:45;100134.81;;;21.34;55.65
37298;BME280;30517;51.932;4.278;2023-08-01T12:09:31;100100.38;;;21.27;55.63
37298;BME280;30517;51.932;4.278;2023-08-01T12:12:13;100018.66;;;20.72;55.50
37298;BME280;30517;51.932;4.278;2023-08-01T12:14:54;100152.38;;;21.56;55.62
37298;BME280;30517;51.932;4.278;2023-08-01T12:17:35;100042.78;;;20.88;55.50
37298;BME280;30517;51.932;4.278;2023-08-01T12:20:16;100082.50;;;21.11;55.61
37298;BME280;30517;51.932;4.278;2023-08-01T12:22:57;100096.94;;;21.25;55.60
37298;BME280;30517;51.932;4.278;2023-08-01T12:25:38;100160.06;;;21.62;55.53
37298;BME280;30517;51.932;4.278;2023-08-01T12:28:18;100176.50;;;21.72;55.52
37298;BME280;30517;51.932;4.278;2023-08-01T12:30:59;100167.28;;;21.76;55.48
37298;BME280;30517;51.932;4.278;2023-08-01T12:33:40;99923.06;;;20.41;55.30
37298;BME280;30517;51.932;4.278;2023-08-01T12:36:21;100157.91;;;21.83;55.42
37298;BME280;30517;51.932;4.278;2023-08-01T12:39:02;100162.31;;;21.84;55.51
37298;BME280;30517;51.932;4.278;2023-08-01T12:41:46;100126.91;;;21.63;55.29
37298;BME280;30517;51.932;4.278;2023-08-01T12:44:27;100177.19;;;21.90;55.29
37298;BME280;30517;51.932;4.278;2023-08-01T12:47:08;100178.50;;;21.98;55.18
37298;BME280;30517;51.932;4.278;2023-08-01T12:49:51;100161.00;;;21.91;55.27
37298;BME280;30517;51.932;4.278;2023-08-01T12:52:32;100181.16;;;21.98;55.38
37298;BME280;30517;51.932;4.278;2023-08-01T12:55:13;100163.03;;;21.87;55.11
37298;BME280;30517;51.932;4.278;2023-08-01T12:57:53;100165.22;;;21.95;55.45
37298;BME280;30517;51.932;4.278;2023-08-01T13:00:34;100183.56;;;22.03;55.43
37298;BME280;30517;51.932;4.278;2023-08-01T13:03:15;100133.25;;;21.76;55.39
37298;BME280;30517;51.932;4.278;2023-08-01T13:05:56;100182.44;;;22.07;55.27
37298;BME280;30517;51.932;4.278;2023-08-01T13:08:38;100184.84;;;22.12;55.26
37298;BME280;30517;51.932;4.278;2023-08-01T13:11:19;100155.06;;;22.00;55.20
37298;BME280;30517;51.932;4.278;2023-08-01T13:13:59;100108.59;;;21.70;55.07
37298;BME280;30517;51.932;4.278;2023-08-01T13:16:40;100133.66;;;21.84;55.26
37298;BME280;30517;51.932;4.278;2023-08-01T13:19:21;100041.72;;;21.36;55.09
37298;BME280;30517;51.932;4.278;2023-08-01T13:22:02;100177.53;;;22.14;55.11
37298;BME280;30517;51.932;4.278;2023-08-01T13:24:45;100150.94;;;21.95;55.04
37298;BME280;30517;51.932;4.278;2023-08-01T13:27:27;100191.13;;;22.26;55.17
37298;BME280;30517;51.932;4.278;2023-08-01T13:30:08;100095.97;;;21.72;55.05
37298;BME280;30517;51.932;4.278;2023-08-01T13:32:49;100196.41;;;22.28;55.21
37298;BME280;30517;51.932;4.278;2023-08-01T13:35:30;100204.28;;;22.31;55.19
37298;BME280;30517;51.932;4.278;2023-08-01T13:38:10;100200.63;;;22.32;55.30
37298;BME280;30517;51.932;4.278;2023-08-01T13:40:53;100199.50;;;22.36;55.21
37298;BME280;30517;51.932;4.278;2023-08-01T13:43:33;100203.91;;;22.37;55.15
37298;BME280;30517;51.932;4.278;2023-08-01T13:46:18;100182.78;;;22.31;54.93
37298;BME280;30517;51.932;4.278;2023-08-01T13:48:59;100140.91;;;22.13;55.20
37298;BME280;30517;51.932;4.278;2023-08-01T13:51:40;100125.66;;;21.99;54.88
37298;BME280;30517;51.932;4.278;2023-08-01T13:54:21;100195.19;;;22.48;54.98
37298;BME280;30517;51.932;4.278;2023-08-01T13:57:02;100196.31;;;22.44;54.73
37298;BME280;30517;51.932;4.278;2023-08-01T13:59:43;100193.06;;;22.53;54.79
37298;BME280;30517;51.932;4.278;2023-08-01T14:02:24;100179.53;;;22.54;54.58
37298;BME280;30517;51.932;4.278;2023-08-01T14:05:05;100162.25;;;22.30;54.86
37298;BME280;30517;51.932;4.278;2023-08-01T14:07:46;100199.88;;;22.59;54.67
37298;BME280;30517;51.932;4.278;2023-08-01T14:10:26;100198.84;;;22.61;54.72
37298;BME280;30517;51.932;4.278;2023-08-01T14:13:07;100120.00;;;22.18;54.89
37298;BME280;30517;51.932;4.278;2023-08-01T14:15:48;100203.72;;;22.69;54.48
37298;BME280;30517;51.932;4.278;2023-08-01T14:18:29;100198.34;;;22.69;54.63